sensor_id;sensor_type;location;lat;lon;timestamp;P1;durP1;ratioP1;P2;durP2;ratioP2
18818;SDS011;9537;45.594;9.294;2022-10-31T00:00:33;7.70;;;5.20;;
18818;SDS011;9537;45.594;9.294;2022-10-31T00:01:36;10.90;;;5.20;;
18818;SDS011;9537;45.594;9.294;2022-10-31T00:02:39;8.60;;;5.43;;
18818;SDS011;9537;45.594;9.294;2022-10-31T00:03:42;9.47;;;5.23;;
18818;SDS011;9537;45.594;9.294;2022-10-31T00:04:43;8.97;;;5.50;;
18818;SDS011;9537;45.594;9.294;2022-10-31T00:05:45;10.30;;;4.90;;
18818;SDS011;9537;45.594;9.294;2022-10-31T00:06:48;8.87;;;5.20;;
18818;SDS011;9537;45.594;9.294;2022-10-31T00:07:51;8.37;;;5.03;;
18818;SDS011;9537;45.594;9.294;2022-10-31T00:08:53;7.53;;;5.10;;
18818;SDS011;9537;45.594;9.294;2022-10-31T00:09:56;11.23;;;5.33;;
18818;SDS011;9537;45.594;9.294;2022-10-31T00:10:57;13.93;;;5.77;;
18818;SDS011;9537;45.594;9.294;2022-10-31T00:11:59;12.07;;;4.90;;
18818;SDS011;9537;45.594;9.294;2022-10-31T00:13:00;10.77;;;5.40;;
18818;SDS011;9537;45.594;9.294;2022-10-31T00:14:02;9.27;;;5.37;;
18818;SDS011;9537;45.594;9.294;2022-10-31T00:15:04;6.47;;;4.90;;
18818;SDS011;9537;45.594;9.294;2022-10-31T00:16:12;12.60;;;5.40;;
18818;SDS011;9537;45.594;9.294;2022-10-31T00:17:14;8.63;;;5.13;;
18818;SDS011;9537;45.594;9.294;2022-10-31T00:18:17;7.40;;;4.93;;
18818;SDS011;9537;45.594;9.294;2022-10-31T00:19:18;8.10;;;5.30;;
18818;SDS011;9537;45.594;9.294;2022-10-31T00:20:20;7.83;;;5.50;;
18818;SDS011;9537;45.594;9.294;2022-10-31T00:21:22;6.33;;;5.03;;
18818;SDS011;9537;45.594;9.294;2022-10-31T00:22:24;8.77;;;5.07;;
18818;SDS011;9537;45.594;9.294;2022-10-31T00:23:25;8.80;;;4.67;;
18818;SDS011;9537;45.594;9.294;2022-10-31T00:24:28;12.27;;;5.87;;
18818;SDS011;9537;45.594;9.294;2022-10-31T00:25:29;7.33;;;5.30;;
18818;SDS011;9537;45.594;9.294;2022-10-31T00:26:35;9.90;;;5.87;;
18818;SDS011;9537;45.594;9.294;2022-10-31T00:27:36;8.27;;;5.40;;
18818;SDS011;9537;45.594;9.294;2022-10-31T00:28:38;10.33;;;5.53;;
18818;SDS011;9537;45.594;9.294;2022-10-31T00:29:40;9.50;;;5.90;;
18818;SDS011;9537;45.594;9.294;2022-10-31T00:30:42;9.97;;;5.80;;
18818;SDS011;9537;45.594;9.294;2022-10-31T00:31:43;12.03;;;5.50;;
18818;SDS011;9537;45.594;9.294;2022-10-31T00:32:45;11.00;;;5.50;;
18818;SDS011;9537;45.594;9.294;2022-10-31T00:33:47;11.03;;;5.53;;
18818;SDS011;9537;45.594;9.294;2022-10-31T00:34:50;7.50;;;4.73;;
18818;SDS011;9537;45.594;9.294;2022-10-31T00:35:51;8.30;;;5.10;;
18818;SDS011;9537;45.594;9.294;2022-10-31T00:36:52;7.93;;;5.07;;
18818;SDS011;9537;45.594;9.294;2022-10-31T00:37:53;7.67;;;5.00;;
18818;SDS011;9537;45.594;9.294;2022-10-31T00:38:55;7.60;;;5.60;;
18818;SDS011;9537;45.594;9.294;2022-10-31T00:39:59;8.37;;;5.83;;
18818;SDS011;9537;45.594;9.294;2022-10-31T00:41:01;7.90;;;4.57;;
18818;SDS011;9537;45.594;9.294;2022-10-31T00:42:02;10.83;;;5.47;;
18818;SDS011;9537;45.594;9.294;2022-10-31T00:43:04;11.20;;;5.27;;
18818;SDS011;9537;45.594;9.294;2022-10-31T00:44:05;8.73;;;5.23;;
18818;SDS011;9537;45.594;9.294;2022-10-31T00:45:08;8.87;;;5.40;;
18818;SDS011;9537;45.594;9.294;2022-10-31T00:46:10;9.63;;;5.80;;
18818;SDS011;9537;45.594;9.294;2022-10-31T00:47:12;11.10;;;5.50;;
18818;SDS011;9537;45.594;9.294;2022-10-31T00:48:13;9.53;;;5.40;;
18818;SDS011;9537;45.594;9.294;2022-10-31T00:49:16;10.40;;;5.53;;
18818;SDS011;9537;45.594;9.294;2022-10-31T00:50:18;7.23;;;5.03;;
18818;SDS011;9537;45.594;9.294;2022-10-31T00:51:19;10.57;;;5.13;;
18818;SDS011;9537;45.594;9.294;2022-10-31T00:52:21;8.33;;;4.80;;
18818;SDS011;9537;45.594;9.294;2022-10-31T00:53:22;8.77;;;5.13;;
18818;SDS011;9537;45.594;9.294;2022-10-31T00:54:25;9.43;;;5.23;;
18818;SDS011;9537;45.594;9.294;2022-10-31T00:55:26;8.70;;;4.77;;
18818;SDS011;9537;45.594;9.294;2022-10-31T00:56:28;11.33;;;5.30;;
18818;SDS011;9537;45.594;9.294;2022-10-31T00:57:29;7.80;;;5.43;;
18818;SDS011;9537;45.594;9.294;2022-10-31T00:58:31;8.17;;;5.20;;
18818;SDS011;9537;45.594;9.294;2022-10-31T00:59:32;7.60;;;4.97;;
18818;SDS011;9537;45.594;9.294;2022-10-31T01:00:34;9.40;;;5.23;;
18818;SDS011;9537;45.594;9.294;2022-10-31T01:01:35;9.27;;;5.40;;
18818;SDS011;9537;45.594;9.294;2022-10-31T01:02:37;9.93;;;5.37;;
18818;SDS011;9537;45.594;9.294;2022-10-31T01:03:38;8.77;;;5.60;;
18818;SDS011;9537;45.594;9.294;2022-10-31T01:04:42;10.60;;;5.27;;
18818;SDS011;9537;45.594;9.294;2022-10-31T01:05:43;11.50;;;5.57;;
18818;SDS011;9537;45.594;9.294;2022-10-31T01:06:45;9.47;;;5.87;;
18818;SDS011;9537;45.594;9.294;2022-10-31T01:07:46;7.40;;;5.30;;
18818;SDS011;9537;45.594;9.294;2022-10-31T01:08:48;11.23;;;5.67;;
18818;SDS011;9537;45.594;9.294;2022-10-31T01:09:49;7.67;;;5.60;;
18818;SDS011;9537;45.594;9.294;2022-10-31T01:10:58;11.30;;;5.87;;
18818;SDS011;9537;45.594;9.294;2022-10-31T01:12:03;8.97;;;6.03;;
18818;SDS011;9537;45.594;9.294;2022-10-31T01:13:05;8.30;;;5.10;;
18818;SDS011;9537;45.594;9.294;2022-10-31T01:14:06;7.47;;;4.90;;
18818;SDS011;9537;45.594;9.294;2022-10-31T01:15:08;9.73;;;5.37;;
18818;SDS011;9537;45.594;9.294;2022-10-31T01:16:11;8.50;;;4.70;;
18818;SDS011;9537;45.594;9.294;2022-10-31T01:17:15;8.63;;;4.93;;
18818;SDS011;9537;45.594;9.294;2022-10-31T01:18:16;9.00;;;5.00;;
18818;SDS011;9537;45.594;9.294;2022-10-31T01:19:18;6.00;;;4.90;;
18818;SDS011;9537;45.594;9.294;2022-10-31T01:20:21;7.93;;;5.20;;
18818;SDS011;9537;45.594;9.294;2022-10-31T01:21:24;10.83;;;5.30;;
18818;SDS011;9537;45.594;9.294;2022-10-31T01:22:26;9.07;;;5.60;;
18818;SDS011;9537;45.594;9.294;2022-10-31T01:23:29;7.97;;;5.20;;
18818;SDS011;9537;45.594;9.294;2022-10-31T01:24:30;9.67;;;5.17;;
18818;SDS011;9537;45.594;9.294;2022-10-31T01:25:32;7.20;;;5.07;;
18818;SDS011;9537;45.594;9.294;2022-10-31T01:26:33;9.10;;;5.67;;
18818;SDS011;9537;45.594;9.294;2022-10-31T01:27:35;10.37;;;5.60;;
18818;SDS011;9537;45.594;9.294;2022-10-31T01:28:37;11.40;;;5.70;;
18818;SDS011;9537;45.594;9.294;2022-10-31T01:29:44;8.53;;;4.87;;
18818;SDS011;9537;45.594;9.294;2022-10-31T01:30:45;11.00;;;5.87;;
18818;SDS011;9537;45.594;9.294;2022-10-31T01:31:47;6.77;;;5.13;;
18818;SDS011;9537;45.594;9.294;2022-10-31T01:32:48;9.30;;;5.63;;
18818;SDS011;9537;45.594;9.294;2022-10-31T01:33:50;7.83;;;5.03;;
18818;SDS011;9537;45.594;9.294;2022-10-31T01:34:52;7.73;;;5.63;;
18818;SDS011;9537;45.594;9.294;2022-10-31T01:35:55;9.37;;;5.53;;
18818;SDS011;9537;45.594;9.294;2022-10-31T01:36:56;9.70;;;6.17;;
18818;SDS011;9537;45.594;9.294;2022-10-31T01:37:58;8.50;;;5.20;;
18818;SDS011;9537;45.594;9.294;2022-10-31T01:39:01;10.20;;;5.40;;
18818;SDS011;9537;45.594;9.294;2022-10-31T01:40:05;7.13;;;5.07;;
18818;SDS011;9537;45.594;9.294;2022-10-31T01:41:07;8.17;;;4.80;;
18818;SDS011;9537;45.594;9.294;2022-10-31T01:42:11;9.97;;;5.03;;
18818;SDS011;9537;45.594;9.294;2022-10-31T01:43:18;11.13;;;5.27;;
18818;SDS011;9537;45.594;9.294;2022-10-31T01:46:00;10.53;;;5.50;;
18818;SDS011;9537;45.594;9.294;2022-10-31T01:47:03;11.20;;;5.43;;
18818;SDS011;9537;45.594;9.294;2022-10-31T01:48:10;7.67;;;4.77;;
18818;SDS011;9537;45.594;9.294;2022-10-31T01:49:15;7.27;;;5.10;;
18818;SDS011;9537;45.594;9.294;2022-10-31T01:50:23;7.43;;;5.10;;
18818;SDS011;9537;45.594;9.294;2022-10-31T01:51:33;8.13;;;5.23;;
18818;SDS011;9537;45.594;9.294;2022-10-31T01:52:39;7.40;;;5.10;;
18818;SDS011;9537;45.594;9.294;2022-10-31T01:53:43;7.57;;;4.87;;
18818;SDS011;9537;45.594;9.294;2022-10-31T01:54:47;12.33;;;5.30;;
18818;SDS011;9537;45.594;9.294;2022-10-31T01:55:52;9.37;;;5.03;;
18818;SDS011;9537;45.594;9.294;2022-10-31T01:56:55;9.83;;;5.00;;
18818;SDS011;9537;45.594;9.294;2022-10-31T01:57:59;8.23;;;5.27;;
18818;SDS011;9537;45.594;9.294;2022-10-31T01:59:06;8.53;;;4.87;;
18818;SDS011;9537;45.594;9.294;2022-10-31T02:00:11;7.60;;;4.73;;
18818;SDS011;9537;45.594;9.294;2022-10-31T02:01:14;8.17;;;5.47;;
18818;SDS011;9537;45.594;9.294;2022-10-31T02:02:17;8.60;;;5.17;;
18818;SDS011;9537;45.594;9.294;2022-10-31T02:03:20;7.37;;;4.90;;
18818;SDS011;9537;45.594;9.294;2022-10-31T02:04:23;7.77;;;5.00;;
18818;SDS011;9537;45.594;9.294;2022-10-31T02:05:27;7.60;;;5.30;;
18818;SDS011;9537;45.594;9.294;2022-10-31T02:06:33;5.83;;;4.43;;
18818;SDS011;9537;45.594;9.294;2022-10-31T02:07:42;8.73;;;5.13;;
18818;SDS011;9537;45.594;9.294;2022-10-31T02:08:47;9.70;;;5.50;;
18818;SDS011;9537;45.594;9.294;2022-10-31T02:09:49;8.37;;;5.10;;
18818;SDS011;9537;45.594;9.294;2022-10-31T02:10:54;8.33;;;5.13;;
18818;SDS011;9537;45.594;9.294;2022-10-31T02:11:57;9.83;;;5.50;;
18818;SDS011;9537;45.594;9.294;2022-10-31T02:13:01;8.87;;;5.10;;
18818;SDS011;9537;45.594;9.294;2022-10-31T02:14:05;10.43;;;6.00;;
18818;SDS011;9537;45.594;9.294;2022-10-31T02:15:07;6.57;;;5.00;;
18818;SDS011;9537;45.594;9.294;2022-10-31T02:16:10;8.57;;;5.10;;
18818;SDS011;9537;45.594;9.294;2022-10-31T02:17:11;9.57;;;5.13;;
18818;SDS011;9537;45.594;9.294;2022-10-31T02:18:14;8.47;;;5.03;;
18818;SDS011;9537;45.594;9.294;2022-10-31T02:19:16;8.67;;;4.90;;
18818;SDS011;9537;45.594;9.294;2022-10-31T02:20:23;7.03;;;5.10;;
18818;SDS011;9537;45.594;9.294;2022-10-31T02:21:28;8.27;;;4.87;;
18818;SDS011;9537;45.594;9.294;2022-10-31T02:22:39;8.30;;;4.77;;
18818;SDS011;9537;45.594;9.294;2022-10-31T02:25:42;7.27;;;4.80;;
18818;SDS011;9537;45.594;9.294;2022-10-31T02:27:11;11.90;;;4.77;;
18818;SDS011;9537;45.594;9.294;2022-10-31T02:28:30;11.83;;;4.80;;
18818;SDS011;9537;45.594;9.294;2022-10-31T02:31:15;6.53;;;4.63;;
18818;SDS011;9537;45.594;9.294;2022-10-31T02:32:25;7.70;;;4.77;;
18818;SDS011;9537;45.594;9.294;2022-10-31T02:33:30;7.40;;;4.80;;
18818;SDS011;9537;45.594;9.294;2022-10-31T02:34:40;6.20;;;4.70;;
18818;SDS011;9537;45.594;9.294;2022-10-31T02:35:53;7.03;;;4.67;;
18818;SDS011;9537;45.594;9.294;2022-10-31T02:37:01;5.03;;;4.27;;
18818;SDS011;9537;45.594;9.294;2022-10-31T02:38:14;9.23;;;4.77;;
18818;SDS011;9537;45.594;9.294;2022-10-31T02:39:26;8.33;;;4.60;;
18818;SDS011;9537;45.594;9.294;2022-10-31T02:40:37;8.30;;;4.93;;
18818;SDS011;9537;45.594;9.294;2022-10-31T02:41:47;7.93;;;4.47;;
18818;SDS011;9537;45.594;9.294;2022-10-31T02:42:56;5.57;;;4.60;;
18818;SDS011;9537;45.594;9.294;2022-10-31T02:44:05;11.93;;;4.83;;
18818;SDS011;9537;45.594;9.294;2022-10-31T02:45:11;7.87;;;4.93;;
18818;SDS011;9537;45.594;9.294;2022-10-31T02:46:18;7.77;;;4.80;;
18818;SDS011;9537;45.594;9.294;2022-10-31T02:47:26;8.63;;;5.00;;
18818;SDS011;9537;45.594;9.294;2022-10-31T02:48:30;7.60;;;5.60;;
18818;SDS011;9537;45.594;9.294;2022-10-31T02:49:37;6.53;;;4.47;;
18818;SDS011;9537;45.594;9.294;2022-10-31T02:50:45;7.47;;;4.80;;
18818;SDS011;9537;45.594;9.294;2022-10-31T02:51:53;5.37;;;4.60;;
18818;SDS011;9537;45.594;9.294;2022-10-31T02:52:55;7.57;;;4.80;;
18818;SDS011;9537;45.594;9.294;2022-10-31T02:53:57;9.57;;;5.53;;
18818;SDS011;9537;45.594;9.294;2022-10-31T02:54:58;7.30;;;4.80;;
18818;SDS011;9537;45.594;9.294;2022-10-31T02:56:01;8.77;;;4.50;;
18818;SDS011;9537;45.594;9.294;2022-10-31T02:57:06;6.87;;;4.43;;
18818;SDS011;9537;45.594;9.294;2022-10-31T02:58:11;8.43;;;5.13;;
18818;SDS011;9537;45.594;9.294;2022-10-31T02:59:14;8.13;;;5.10;;
18818;SDS011;9537;45.594;9.294;2022-10-31T03:00:17;6.17;;;4.53;;
18818;SDS011;9537;45.594;9.294;2022-10-31T03:01:36;7.17;;;4.43;;
18818;SDS011;9537;45.594;9.294;2022-10-31T03:02:51;6.63;;;4.77;;
18818;SDS011;9537;45.594;9.294;2022-10-31T03:04:15;9.50;;;4.80;;
18818;SDS011;9537;45.594;9.294;2022-10-31T03:05:31;8.43;;;4.53;;
18818;SDS011;9537;45.594;9.294;2022-10-31T03:06:43;8.33;;;4.40;;
18818;SDS011;9537;45.594;9.294;2022-10-31T03:07:51;7.40;;;4.33;;
18818;SDS011;9537;45.594;9.294;2022-10-31T03:09:02;9.60;;;5.20;;
18818;SDS011;9537;45.594;9.294;2022-10-31T03:10:14;9.27;;;4.70;;
18818;SDS011;9537;45.594;9.294;2022-10-31T03:11:20;8.47;;;4.63;;
18818;SDS011;9537;45.594;9.294;2022-10-31T03:12:30;8.30;;;4.40;;
18818;SDS011;9537;45.594;9.294;2022-10-31T03:13:40;9.70;;;4.87;;
18818;SDS011;9537;45.594;9.294;2022-10-31T03:14:48;7.67;;;4.17;;
18818;SDS011;9537;45.594;9.294;2022-10-31T03:15:55;6.03;;;4.27;;
18818;SDS011;9537;45.594;9.294;2022-10-31T03:17:05;7.80;;;4.33;;
18818;SDS011;9537;45.594;9.294;2022-10-31T03:18:09;6.33;;;4.50;;
18818;SDS011;9537;45.594;9.294;2022-10-31T03:19:16;7.50;;;4.40;;
18818;SDS011;9537;45.594;9.294;2022-10-31T03:20:21;6.93;;;4.33;;
18818;SDS011;9537;45.594;9.294;2022-10-31T03:21:28;7.00;;;4.47;;
18818;SDS011;9537;45.594;9.294;2022-10-31T03:22:33;7.80;;;4.50;;
18818;SDS011;9537;45.594;9.294;2022-10-31T03:23:37;5.20;;;4.20;;
18818;SDS011;9537;45.594;9.294;2022-10-31T03:24:40;6.23;;;4.10;;
18818;SDS011;9537;45.594;9.294;2022-10-31T03:25:44;5.70;;;4.63;;
18818;SDS011;9537;45.594;9.294;2022-10-31T03:26:48;7.43;;;4.27;;
18818;SDS011;9537;45.594;9.294;2022-10-31T03:27:53;6.20;;;4.27;;
18818;SDS011;9537;45.594;9.294;2022-10-31T03:28:57;8.80;;;4.73;;
18818;SDS011;9537;45.594;9.294;2022-10-31T03:30:03;10.13;;;4.70;;
18818;SDS011;9537;45.594;9.294;2022-10-31T03:31:08;8.50;;;4.40;;
18818;SDS011;9537;45.594;9.294;2022-10-31T03:32:14;7.33;;;4.50;;
18818;SDS011;9537;45.594;9.294;2022-10-31T03:33:20;5.97;;;4.30;;
18818;SDS011;9537;45.594;9.294;2022-10-31T03:34:28;6.30;;;4.60;;
18818;SDS011;9537;45.594;9.294;2022-10-31T03:35:31;12.20;;;4.67;;
18818;SDS011;9537;45.594;9.294;2022-10-31T03:36:35;8.40;;;4.87;;
18818;SDS011;9537;45.594;9.294;2022-10-31T03:37:40;7.50;;;4.23;;
18818;SDS011;9537;45.594;9.294;2022-10-31T03:38:43;5.60;;;4.43;;
18818;SDS011;9537;45.594;9.294;2022-10-31T03:39:47;7.47;;;4.50;;
18818;SDS011;9537;45.594;9.294;2022-10-31T03:40:51;5.90;;;3.90;;
18818;SDS011;9537;45.594;9.294;2022-10-31T03:41:55;7.40;;;4.70;;
18818;SDS011;9537;45.594;9.294;2022-10-31T03:43:03;7.07;;;4.30;;
18818;SDS011;9537;45.594;9.294;2022-10-31T03:44:08;7.27;;;4.90;;
18818;SDS011;9537;45.594;9.294;2022-10-31T03:45:15;8.83;;;4.70;;
18818;SDS011;9537;45.594;9.294;2022-10-31T03:46:21;7.03;;;4.13;;
18818;SDS011;9537;45.594;9.294;2022-10-31T03:47:25;6.53;;;4.13;;
18818;SDS011;9537;45.594;9.294;2022-10-31T03:48:27;6.90;;;4.43;;
18818;SDS011;9537;45.594;9.294;2022-10-31T03:49:29;7.90;;;4.43;;
18818;SDS011;9537;45.594;9.294;2022-10-31T03:50:32;6.53;;;4.37;;
18818;SDS011;9537;45.594;9.294;2022-10-31T03:51:44;10.20;;;4.87;;
18818;SDS011;9537;45.594;9.294;2022-10-31T03:52:52;7.40;;;3.70;;
18818;SDS011;9537;45.594;9.294;2022-10-31T03:54:00;7.03;;;3.97;;
18818;SDS011;9537;45.594;9.294;2022-10-31T03:55:07;7.17;;;4.10;;
18818;SDS011;9537;45.594;9.294;2022-10-31T03:56:16;5.87;;;4.47;;
18818;SDS011;9537;45.594;9.294;2022-10-31T03:57:24;6.63;;;4.07;;
18818;SDS011;9537;45.594;9.294;2022-10-31T03:58:28;7.17;;;4.23;;
18818;SDS011;9537;45.594;9.294;2022-10-31T03:59:39;5.67;;;4.00;;
18818;SDS011;9537;45.594;9.294;2022-10-31T04:00:43;8.03;;;4.00;;
18818;SDS011;9537;45.594;9.294;2022-10-31T04:01:47;7.90;;;4.37;;
18818;SDS011;9537;45.594;9.294;2022-10-31T04:02:53;10.47;;;4.67;;
18818;SDS011;9537;45.594;9.294;2022-10-31T04:03:59;8.20;;;4.57;;
18818;SDS011;9537;45.594;9.294;2022-10-31T04:05:01;10.73;;;4.83;;
18818;SDS011;9537;45.594;9.294;2022-10-31T04:06:05;6.83;;;4.33;;
18818;SDS011;9537;45.594;9.294;2022-10-31T04:07:08;7.33;;;3.73;;
18818;SDS011;9537;45.594;9.294;2022-10-31T04:08:12;7.77;;;4.43;;
18818;SDS011;9537;45.594;9.294;2022-10-31T04:09:19;8.17;;;4.53;;
18818;SDS011;9537;45.594;9.294;2022-10-31T04:10:23;10.00;;;4.43;;
18818;SDS011;9537;45.594;9.294;2022-10-31T04:11:27;8.17;;;4.40;;
18818;SDS011;9537;45.594;9.294;2022-10-31T04:12:32;10.57;;;4.27;;
18818;SDS011;9537;45.594;9.294;2022-10-31T04:13:36;7.73;;;4.40;;
18818;SDS011;9537;45.594;9.294;2022-10-31T04:14:41;6.73;;;4.03;;
18818;SDS011;9537;45.594;9.294;2022-10-31T04:15:44;8.60;;;4.37;;
18818;SDS011;9537;45.594;9.294;2022-10-31T04:16:48;8.93;;;4.20;;
18818;SDS011;9537;45.594;9.294;2022-10-31T04:17:49;7.43;;;4.10;;
18818;SDS011;9537;45.594;9.294;2022-10-31T04:18:56;7.30;;;4.30;;
18818;SDS011;9537;45.594;9.294;2022-10-31T04:19:58;7.97;;;3.93;;
18818;SDS011;9537;45.594;9.294;2022-10-31T04:21:02;7.07;;;4.00;;
18818;SDS011;9537;45.594;9.294;2022-10-31T04:22:04;9.37;;;4.40;;
18818;SDS011;9537;45.594;9.294;2022-10-31T04:23:08;10.77;;;4.37;;
18818;SDS011;9537;45.594;9.294;2022-10-31T04:24:19;8.40;;;3.97;;
18818;SDS011;9537;45.594;9.294;2022-10-31T04:25:21;10.57;;;4.00;;
18818;SDS011;9537;45.594;9.294;2022-10-31T04:26:22;6.10;;;3.90;;
18818;SDS011;9537;45.594;9.294;2022-10-31T04:27:24;6.37;;;4.10;;
18818;SDS011;9537;45.594;9.294;2022-10-31T04:28:25;6.00;;;3.90;;
18818;SDS011;9537;45.594;9.294;2022-10-31T04:29:27;6.90;;;4.30;;
18818;SDS011;9537;45.594;9.294;2022-10-31T04:30:28;10.43;;;4.70;;
18818;SDS011;9537;45.594;9.294;2022-10-31T04:31:32;7.93;;;4.50;;
18818;SDS011;9537;45.594;9.294;2022-10-31T04:32:33;9.13;;;4.23;;
18818;SDS011;9537;45.594;9.294;2022-10-31T04:33:35;9.50;;;4.13;;
18818;SDS011;9537;45.594;9.294;2022-10-31T04:34:38;9.97;;;3.90;;
18818;SDS011;9537;45.594;9.294;2022-10-31T04:35:39;6.73;;;3.80;;
18818;SDS011;9537;45.594;9.294;2022-10-31T04:36:41;4.83;;;3.43;;
18818;SDS011;9537;45.594;9.294;2022-10-31T04:37:43;6.63;;;3.70;;
18818;SDS011;9537;45.594;9.294;2022-10-31T04:38:45;8.47;;;3.90;;
18818;SDS011;9537;45.594;9.294;2022-10-31T04:39:47;7.93;;;4.10;;
18818;SDS011;9537;45.594;9.294;2022-10-31T04:40:48;7.70;;;4.07;;
18818;SDS011;9537;45.594;9.294;2022-10-31T04:41:51;9.03;;;3.90;;
18818;SDS011;9537;45.594;9.294;2022-10-31T04:42:52;8.97;;;3.87;;
18818;SDS011;9537;45.594;9.294;2022-10-31T04:43:54;7.63;;;4.10;;
18818;SDS011;9537;45.594;9.294;2022-10-31T04:44:55;5.07;;;3.53;;
18818;SDS011;9537;45.594;9.294;2022-10-31T04:45:57;7.53;;;4.17;;
18818;SDS011;9537;45.594;9.294;2022-10-31T04:46:58;5.80;;;4.10;;
18818;SDS011;9537;45.594;9.294;2022-10-31T04:48:00;7.93;;;4.13;;
18818;SDS011;9537;45.594;9.294;2022-10-31T04:49:01;6.70;;;3.97;;
18818;SDS011;9537;45.594;9.294;2022-10-31T04:50:06;7.13;;;4.00;;
18818;SDS011;9537;45.594;9.294;2022-10-31T04:51:07;7.43;;;4.27;;
18818;SDS011;9537;45.594;9.294;2022-10-31T04:52:10;6.67;;;4.57;;
18818;SDS011;9537;45.594;9.294;2022-10-31T04:53:12;6.37;;;3.90;;
18818;SDS011;9537;45.594;9.294;2022-10-31T04:54:12;6.83;;;3.80;;
18818;SDS011;9537;45.594;9.294;2022-10-31T04:55:15;5.20;;;3.77;;
18818;SDS011;9537;45.594;9.294;2022-10-31T04:56:16;6.73;;;3.60;;
18818;SDS011;9537;45.594;9.294;2022-10-31T04:57:18;7.87;;;3.20;;
18818;SDS011;9537;45.594;9.294;2022-10-31T04:58:19;8.43;;;3.60;;
18818;SDS011;9537;45.594;9.294;2022-10-31T04:59:21;5.30;;;3.53;;
18818;SDS011;9537;45.594;9.294;2022-10-31T05:00:23;6.50;;;3.80;;
18818;SDS011;9537;45.594;9.294;2022-10-31T05:01:25;5.73;;;3.67;;
18818;SDS011;9537;45.594;9.294;2022-10-31T05:02:28;5.27;;;3.70;;
18818;SDS011;9537;45.594;9.294;2022-10-31T05:03:30;8.40;;;3.97;;
18818;SDS011;9537;45.594;9.294;2022-10-31T05:04:31;6.73;;;3.80;;
18818;SDS011;9537;45.594;9.294;2022-10-31T05:05:34;4.37;;;3.43;;
18818;SDS011;9537;45.594;9.294;2022-10-31T05:06:36;7.10;;;3.60;;
18818;SDS011;9537;45.594;9.294;2022-10-31T05:07:38;7.17;;;3.80;;
18818;SDS011;9537;45.594;9.294;2022-10-31T05:08:40;6.97;;;3.77;;
18818;SDS011;9537;45.594;9.294;2022-10-31T05:09:43;5.43;;;4.00;;
18818;SDS011;9537;45.594;9.294;2022-10-31T05:10:44;6.13;;;4.20;;
18818;SDS011;9537;45.594;9.294;2022-10-31T05:11:46;6.17;;;3.83;;
18818;SDS011;9537;45.594;9.294;2022-10-31T05:12:47;7.63;;;3.90;;
18818;SDS011;9537;45.594;9.294;2022-10-31T05:13:49;8.17;;;4.03;;
18818;SDS011;9537;45.594;9.294;2022-10-31T05:14:51;5.63;;;3.77;;
18818;SDS011;9537;45.594;9.294;2022-10-31T05:15:53;6.27;;;3.83;;
18818;SDS011;9537;45.594;9.294;2022-10-31T05:16:54;5.47;;;3.83;;
18818;SDS011;9537;45.594;9.294;2022-10-31T05:17:56;6.50;;;3.80;;
18818;SDS011;9537;45.594;9.294;2022-10-31T05:18:57;7.57;;;3.27;;
18818;SDS011;9537;45.594;9.294;2022-10-31T05:19:59;7.87;;;3.37;;
18818;SDS011;9537;45.594;9.294;2022-10-31T05:21:01;6.10;;;3.77;;
18818;SDS011;9537;45.594;9.294;2022-10-31T05:22:03;6.33;;;3.70;;
18818;SDS011;9537;45.594;9.294;2022-10-31T05:23:04;7.13;;;3.67;;
18818;SDS011;9537;45.594;9.294;2022-10-31T05:24:07;7.83;;;3.93;;
18818;SDS011;9537;45.594;9.294;2022-10-31T05:25:08;9.87;;;3.73;;
18818;SDS011;9537;45.594;9.294;2022-10-31T05:26:10;6.97;;;3.43;;
18818;SDS011;9537;45.594;9.294;2022-10-31T05:27:11;5.40;;;3.57;;
18818;SDS011;9537;45.594;9.294;2022-10-31T05:28:13;6.40;;;3.90;;
18818;SDS011;9537;45.594;9.294;2022-10-31T05:29:14;9.53;;;4.03;;
18818;SDS011;9537;45.594;9.294;2022-10-31T05:30:17;5.20;;;3.33;;
18818;SDS011;9537;45.594;9.294;2022-10-31T05:31:19;7.63;;;4.00;;
18818;SDS011;9537;45.594;9.294;2022-10-31T05:32:21;9.03;;;3.33;;
18818;SDS011;9537;45.594;9.294;2022-10-31T05:33:22;5.90;;;3.47;;
18818;SDS011;9537;45.594;9.294;2022-10-31T05:34:24;7.50;;;4.20;;
18818;SDS011;9537;45.594;9.294;2022-10-31T05:35:25;6.80;;;3.63;;
18818;SDS011;9537;45.594;9.294;2022-10-31T05:36:30;6.67;;;3.83;;
18818;SDS011;9537;45.594;9.294;2022-10-31T05:37:37;5.60;;;3.10;;
18818;SDS011;9537;45.594;9.294;2022-10-31T05:38:42;6.40;;;3.90;;
18818;SDS011;9537;45.594;9.294;2022-10-31T05:39:43;5.73;;;3.37;;
18818;SDS011;9537;45.594;9.294;2022-10-31T05:40:45;4.80;;;3.40;;
18818;SDS011;9537;45.594;9.294;2022-10-31T05:41:46;5.57;;;3.60;;
18818;SDS011;9537;45.594;9.294;2022-10-31T05:42:50;6.00;;;3.47;;
18818;SDS011;9537;45.594;9.294;2022-10-31T05:43:52;4.93;;;3.40;;
18818;SDS011;9537;45.594;9.294;2022-10-31T05:44:54;4.67;;;3.30;;
18818;SDS011;9537;45.594;9.294;2022-10-31T05:45:55;6.10;;;3.50;;
18818;SDS011;9537;45.594;9.294;2022-10-31T05:46:58;6.00;;;3.20;;
18818;SDS011;9537;45.594;9.294;2022-10-31T05:47:59;7.20;;;3.50;;
18818;SDS011;9537;45.594;9.294;2022-10-31T05:49:02;9.70;;;4.00;;
18818;SDS011;9537;45.594;9.294;2022-10-31T05:50:03;8.57;;;3.63;;
18818;SDS011;9537;45.594;9.294;2022-10-31T05:51:06;5.33;;;3.33;;
18818;SDS011;9537;45.594;9.294;2022-10-31T05:52:10;5.67;;;3.43;;
18818;SDS011;9537;45.594;9.294;2022-10-31T05:53:11;5.37;;;3.47;;
18818;SDS011;9537;45.594;9.294;2022-10-31T05:54:13;5.00;;;3.70;;
18818;SDS011;9537;45.594;9.294;2022-10-31T05:55:14;5.40;;;3.37;;
18818;SDS011;9537;45.594;9.294;2022-10-31T05:56:16;7.87;;;4.03;;
18818;SDS011;9537;45.594;9.294;2022-10-31T05:57:17;9.63;;;3.87;;
18818;SDS011;9537;45.594;9.294;2022-10-31T05:58:20;6.97;;;3.77;;
18818;SDS011;9537;45.594;9.294;2022-10-31T05:59:21;5.73;;;3.90;;
18818;SDS011;9537;45.594;9.294;2022-10-31T06:00:24;8.43;;;4.10;;
18818;SDS011;9537;45.594;9.294;2022-10-31T06:01:26;6.50;;;3.67;;
18818;SDS011;9537;45.594;9.294;2022-10-31T06:02:28;5.50;;;4.00;;
18818;SDS011;9537;45.594;9.294;2022-10-31T06:03:32;7.03;;;4.17;;
18818;SDS011;9537;45.594;9.294;2022-10-31T06:04:35;7.97;;;3.67;;
18818;SDS011;9537;45.594;9.294;2022-10-31T06:05:36;8.33;;;4.30;;
18818;SDS011;9537;45.594;9.294;2022-10-31T06:06:38;6.17;;;3.67;;
18818;SDS011;9537;45.594;9.294;2022-10-31T06:07:40;9.33;;;3.87;;
18818;SDS011;9537;45.594;9.294;2022-10-31T06:08:43;7.43;;;3.63;;
18818;SDS011;9537;45.594;9.294;2022-10-31T06:09:43;4.63;;;3.30;;
18818;SDS011;9537;45.594;9.294;2022-10-31T06:10:45;6.97;;;3.63;;
18818;SDS011;9537;45.594;9.294;2022-10-31T06:11:46;8.67;;;3.83;;
18818;SDS011;9537;45.594;9.294;2022-10-31T06:12:49;6.77;;;3.80;;
18818;SDS011;9537;45.594;9.294;2022-10-31T06:13:50;6.33;;;3.50;;
18818;SDS011;9537;45.594;9.294;2022-10-31T06:14:52;7.93;;;4.00;;
18818;SDS011;9537;45.594;9.294;2022-10-31T06:15:53;4.90;;;3.50;;
18818;SDS011;9537;45.594;9.294;2022-10-31T06:16:55;6.23;;;3.23;;
18818;SDS011;9537;45.594;9.294;2022-10-31T06:18:00;7.10;;;3.87;;
18818;SDS011;9537;45.594;9.294;2022-10-31T06:19:02;6.93;;;3.10;;
18818;SDS011;9537;45.594;9.294;2022-10-31T06:20:04;7.30;;;3.80;;
18818;SDS011;9537;45.594;9.294;2022-10-31T06:21:07;5.80;;;3.90;;
18818;SDS011;9537;45.594;9.294;2022-10-31T06:22:08;5.60;;;3.53;;
18818;SDS011;9537;45.594;9.294;2022-10-31T06:23:13;5.83;;;3.90;;
18818;SDS011;9537;45.594;9.294;2022-10-31T06:24:14;6.77;;;4.17;;
18818;SDS011;9537;45.594;9.294;2022-10-31T06:25:16;7.23;;;3.80;;
18818;SDS011;9537;45.594;9.294;2022-10-31T06:26:17;6.47;;;4.20;;
18818;SDS011;9537;45.594;9.294;2022-10-31T06:27:19;6.73;;;4.00;;
18818;SDS011;9537;45.594;9.294;2022-10-31T06:28:20;5.43;;;3.83;;
18818;SDS011;9537;45.594;9.294;2022-10-31T06:29:22;4.77;;;3.63;;
18818;SDS011;9537;45.594;9.294;2022-10-31T06:30:23;7.83;;;3.90;;
18818;SDS011;9537;45.594;9.294;2022-10-31T06:31:25;6.60;;;3.80;;
18818;SDS011;9537;45.594;9.294;2022-10-31T06:32:26;4.67;;;3.40;;
18818;SDS011;9537;45.594;9.294;2022-10-31T06:33:28;6.93;;;3.93;;
18818;SDS011;9537;45.594;9.294;2022-10-31T06:34:30;5.83;;;3.70;;